createdAt,value
2023-03-27T00:02:04.982Z,20.23
2023-03-27T00:04:31.512Z,14.68
2023-03-27T00:06:59.443Z,13.63
2023-03-27T00:09:27.731Z,20.60
2023-03-27T00:11:56.199Z,15.05
2023-03-27T00:14:23.899Z,8.70
2023-03-27T00:16:51.258Z,17.15
2023-03-27T00:19:18.938Z,15.30
2023-03-27T00:21:45.441Z,15.90
2023-03-27T00:24:12.340Z,14.63
2023-03-27T00:26:40.614Z,17.35
2023-03-27T00:29:08.066Z,15.70
2023-03-27T00:31:34.882Z,15.35
2023-03-27T00:34:01.862Z,12.95
2023-03-27T00:36:28.327Z,14.80
2023-03-27T00:38:55.182Z,12.70
2023-03-27T00:41:22.190Z,10.77
2023-03-27T00:43:50.654Z,7.90
2023-03-27T00:46:27.842Z,9.23
2023-03-27T00:48:55.709Z,13.15
2023-03-27T00:51:24.752Z,12.48
2023-03-27T00:53:51.501Z,15.75
2023-03-27T00:56:18.160Z,11.15
2023-03-27T00:58:48.901Z,13.63
2023-03-27T01:01:17.060Z,12.38
2023-03-27T01:03:46.629Z,16.13
2023-03-27T01:06:14.789Z,16.20
2023-03-27T01:08:43.356Z,13.98
2023-03-27T01:11:26.760Z,10.60
2023-03-27T01:14:03.129Z,6.75
2023-03-27T01:16:37.255Z,6.43
2023-03-27T01:19:35.374Z,7.55
2023-03-27T01:22:24.663Z,13.15
2023-03-27T01:25:16.834Z,9.75
2023-03-27T01:28:21.320Z,8.70
2023-03-27T01:30:57.003Z,13.63
2023-03-27T01:33:56.480Z,9.80
2023-03-27T01:36:42.595Z,8.85
2023-03-27T01:39:18.053Z,8.32
2023-03-27T01:41:50.750Z,11.70
2023-03-27T01:44:22.533Z,7.10
2023-03-27T01:46:52.752Z,9.18
2023-03-27T01:49:29.721Z,11.45
2023-03-27T01:52:00.033Z,6.15
2023-03-27T01:54:35.241Z,5.15
2023-03-27T01:57:24.202Z,11.98
2023-03-27T01:59:56.016Z,8.43
2023-03-27T02:02:28.456Z,11.48
2023-03-27T02:05:19.582Z,10.70
2023-03-27T02:07:52.329Z,5.93
2023-03-27T02:10:25.439Z,13.73
2023-03-27T02:13:00.015Z,11.50
2023-03-27T02:15:31.808Z,14.93
2023-03-27T02:18:08.004Z,16.35
2023-03-27T02:20:36.206Z,3.95
2023-03-27T02:23:05.391Z,6.82
2023-03-27T02:25:38.282Z,5.40
2023-03-27T02:28:14.753Z,7.25
2023-03-27T02:31:32.824Z,10.20
2023-03-27T02:34:23.714Z,7.85
2023-03-27T02:37:01.991Z,11.07
2023-03-27T02:39:58.474Z,8.23
2023-03-27T02:42:43.054Z,3.83
2023-03-27T02:45:20.127Z,4.35
2023-03-27T02:47:52.663Z,7.95
2023-03-27T02:50:22.638Z,5.57
2023-03-27T02:52:53.820Z,8.05
2023-03-27T02:55:23.968Z,4.25
2023-03-27T02:57:59.511Z,8.13
2023-03-27T03:00:39.498Z,5.03
2023-03-27T03:03:30.390Z,7.97
2023-03-27T03:06:07.442Z,5.32
2023-03-27T03:08:38.320Z,7.00
2023-03-27T03:11:10.266Z,5.55
2023-03-27T03:13:38.095Z,5.32
2023-03-27T03:16:05.291Z,5.07
2023-03-27T03:18:33.323Z,6.63
2023-03-27T03:21:00.094Z,3.42
2023-03-27T03:23:27.125Z,4.03
2023-03-27T03:25:56.659Z,6.57
2023-03-27T03:28:26.175Z,10.65
2023-03-27T03:30:53.801Z,3.60
2023-03-27T03:33:21.662Z,4.43
2023-03-27T03:35:51.640Z,6.63
2023-03-27T03:38:29.586Z,2.15
2023-03-27T03:41:06.250Z,4.57
2023-03-27T03:43:33.429Z,6.03
2023-03-27T03:46:00.334Z,4.22
2023-03-27T03:48:26.993Z,3.25
2023-03-27T03:50:54.096Z,4.15
2023-03-27T03:53:21.848Z,3.03
2023-03-27T03:55:50.891Z,5.82
2023-03-27T03:58:17.437Z,5.13
2023-03-27T04:00:44.592Z,2.05
2023-03-27T04:03:32.301Z,4.35
2023-03-27T04:06:05.302Z,4.97
2023-03-27T04:08:32.335Z,5.40
2023-03-27T04:11:05.108Z,1.40
2023-03-27T04:13:50.849Z,1.90
2023-03-27T04:16:40.289Z,2.75
2023-03-27T04:19:18.270Z,1.85
2023-03-27T04:21:48.417Z,1.95
2023-03-27T04:24:18.244Z,5.35
2023-03-27T04:26:47.921Z,2.95
2023-03-27T04:29:30.170Z,4.25
2023-03-27T04:31:57.427Z,6.85
2023-03-27T04:34:40.428Z,4.28
2023-03-27T04:37:24.089Z,1.52
2023-03-27T04:40:18.222Z,1.48
2023-03-27T04:42:45.313Z,2.80
2023-03-27T04:45:17.685Z,1.95
2023-03-27T04:47:48.936Z,1.20
2023-03-27T04:50:16.234Z,4.35
2023-03-27T04:52:43.969Z,6.13
2023-03-27T04:55:12.223Z,4.38
2023-03-27T04:57:41.665Z,3.17
2023-03-27T05:00:16.188Z,3.58
2023-03-27T05:02:47.766Z,4.53
2023-03-27T05:05:34.785Z,4.05
2023-03-27T05:08:05.425Z,1.75
2023-03-27T05:10:31.874Z,3.00
2023-03-27T05:12:59.903Z,5.07
2023-03-27T05:15:27.623Z,5.13
2023-03-27T05:17:55.908Z,3.75
2023-03-27T05:20:25.227Z,6.80
2023-03-27T05:22:56.306Z,2.05
2023-03-27T05:25:27.281Z,4.65
2023-03-27T05:27:54.798Z,3.47
2023-03-27T05:30:25.030Z,3.63
2023-03-27T05:33:04.024Z,1.90
2023-03-27T05:35:30.599Z,2.88
2023-03-27T05:37:58.947Z,2.95
2023-03-27T05:40:39.660Z,4.22
2023-03-27T05:43:07.049Z,4.70
2023-03-27T05:45:34.107Z,4.22
2023-03-27T05:48:01.686Z,5.88
2023-03-27T05:50:33.620Z,3.97
2023-03-27T05:53:05.607Z,4.82
2023-03-27T05:55:36.621Z,2.25
2023-03-27T05:58:03.985Z,4.28
2023-03-27T06:00:34.142Z,4.05
2023-03-27T06:03:02.681Z,2.25
2023-03-27T06:05:50.379Z,2.45
2023-03-27T06:08:19.358Z,5.05
2023-03-27T06:10:46.048Z,2.45
2023-03-27T06:13:31.967Z,3.50
2023-03-27T06:16:06.301Z,3.28
2023-03-27T06:18:41.948Z,2.10
2023-03-27T06:21:10.375Z,3.85
2023-03-27T06:23:37.040Z,2.95
2023-03-27T06:26:09.672Z,3.97
2023-03-27T06:28:36.766Z,2.17
2023-03-27T06:31:04.039Z,6.45
2023-03-27T06:33:39.853Z,3.33
2023-03-27T06:36:16.073Z,3.83
2023-03-27T06:38:43.920Z,5.20
2023-03-27T06:41:10.484Z,2.80
2023-03-27T06:44:07.485Z,6.90
2023-03-27T06:46:46.880Z,2.75
2023-03-27T06:49:17.676Z,6.57
2023-03-27T06:51:44.153Z,4.03
2023-03-27T06:54:13.437Z,2.10
2023-03-27T06:56:44.555Z,5.60
2023-03-27T06:59:16.678Z,5.25
2023-03-27T07:01:46.281Z,4.72
2023-03-27T07:04:25.205Z,5.45
2023-03-27T07:07:01.020Z,4.45
2023-03-27T07:09:32.917Z,3.97
2023-03-27T07:12:04.202Z,6.22
2023-03-27T07:14:30.764Z,9.05
2023-03-27T07:16:57.305Z,4.55
2023-03-27T07:19:27.679Z,5.88
2023-03-27T07:22:03.209Z,8.75
2023-03-27T07:24:31.370Z,7.15
2023-03-27T07:26:57.842Z,5.75
2023-03-27T07:29:30.836Z,3.63
2023-03-27T07:32:01.582Z,4.20
2023-03-27T07:34:40.034Z,9.52
2023-03-27T07:37:09.444Z,4.75
2023-03-27T07:39:39.553Z,4.75
2023-03-27T07:42:06.278Z,6.63
2023-03-27T07:44:46.941Z,6.05
2023-03-27T07:47:14.700Z,4.90
2023-03-27T07:49:42.051Z,6.28
2023-03-27T07:52:12.046Z,4.20
2023-03-27T07:54:48.661Z,4.38
2023-03-27T07:57:17.219Z,6.45
2023-03-27T07:59:52.737Z,9.30
2023-03-27T08:02:40.037Z,7.13
2023-03-27T08:05:08.464Z,8.05
2023-03-27T08:07:42.416Z,5.65
2023-03-27T08:10:10.579Z,4.20
2023-03-27T08:12:51.794Z,5.63
2023-03-27T08:15:19.011Z,4.90
2023-03-27T08:17:45.650Z,10.30
2023-03-27T08:20:16.513Z,7.70
2023-03-27T08:22:47.080Z,5.90
2023-03-27T08:25:36.813Z,7.65
2023-03-27T08:28:07.351Z,8.23
2023-03-27T08:30:35.281Z,10.82
2023-03-27T08:33:02.526Z,5.82
2023-03-27T08:35:29.716Z,6.95
2023-03-27T08:37:59.141Z,6.43
2023-03-27T08:40:28.528Z,6.38
2023-03-27T08:43:22.520Z,8.90
2023-03-27T08:45:55.331Z,6.97
2023-03-27T08:48:31.875Z,5.07
2023-03-27T08:51:14.133Z,4.25
2023-03-27T08:53:55.723Z,5.40
2023-03-27T08:56:27.060Z,7.10
2023-03-27T08:58:54.847Z,6.22
2023-03-27T09:01:37.221Z,5.43
2023-03-27T09:04:21.927Z,4.80
2023-03-27T09:07:07.235Z,4.93
2023-03-27T09:09:59.542Z,6.43
2023-03-27T09:12:44.328Z,6.43
2023-03-27T09:15:21.959Z,6.07
2023-03-27T09:17:57.073Z,4.07
2023-03-27T09:20:27.670Z,5.80
2023-03-27T09:22:58.018Z,6.00
2023-03-27T09:25:56.007Z,6.93
2023-03-27T09:28:50.894Z,5.25
2023-03-27T09:31:36.407Z,5.78
2023-03-27T09:34:11.308Z,4.38
2023-03-27T09:36:38.793Z,4.97
2023-03-27T09:39:12.395Z,3.58
2023-03-27T09:41:42.281Z,5.63
2023-03-27T09:44:16.256Z,5.40
2023-03-27T09:46:46.128Z,7.35
2023-03-27T09:49:20.818Z,8.43
2023-03-27T09:51:53.061Z,5.55
2023-03-27T09:54:54.145Z,4.80
2023-03-27T09:57:38.576Z,7.13
2023-03-27T10:00:27.422Z,4.80
2023-03-27T10:03:22.969Z,3.35
2023-03-27T10:06:07.978Z,4.57
2023-03-27T10:08:50.417Z,6.15
2023-03-27T10:11:26.501Z,2.53
2023-03-27T10:14:00.445Z,3.13
2023-03-27T10:16:28.198Z,3.13
2023-03-27T10:19:00.382Z,7.13
2023-03-27T10:21:35.730Z,4.43
2023-03-27T10:24:05.027Z,4.55
2023-03-27T10:27:12.106Z,5.85
2023-03-27T10:29:45.805Z,4.00
2023-03-27T10:32:14.585Z,5.53
2023-03-27T10:34:58.146Z,3.28
2023-03-27T10:37:41.681Z,5.28
2023-03-27T10:40:38.692Z,3.20
2023-03-27T10:43:20.918Z,4.72
2023-03-27T10:46:01.284Z,4.70
2023-03-27T10:48:53.430Z,5.55
2023-03-27T10:51:52.018Z,4.97
2023-03-27T10:55:14.922Z,6.93
2023-03-27T10:57:42.229Z,5.00
2023-03-27T11:00:22.593Z,2.60
2023-03-27T11:03:31.787Z,2.60
2023-03-27T11:06:05.527Z,3.45
2023-03-27T11:09:01.908Z,5.05
2023-03-27T11:11:50.405Z,3.70
2023-03-27T11:14:28.362Z,3.67
2023-03-27T11:17:04.388Z,6.93
2023-03-27T11:20:07.274Z,5.03
2023-03-27T11:23:04.465Z,5.45
2023-03-27T11:25:43.327Z,5.75
2023-03-27T11:28:46.411Z,3.00
2023-03-27T11:31:25.806Z,5.57
2023-03-27T11:34:01.950Z,5.72
2023-03-27T11:36:41.058Z,4.43
2023-03-27T11:39:54.974Z,5.10
2023-03-27T11:42:29.876Z,4.18
2023-03-27T11:44:56.907Z,5.13
2023-03-27T11:47:49.950Z,6.13
2023-03-27T11:50:29.353Z,4.28
2023-03-27T11:53:22.643Z,4.72
2023-03-27T11:56:15.481Z,3.80
2023-03-27T11:59:06.805Z,3.03
2023-03-27T12:01:45.932Z,4.25
2023-03-27T12:04:51.945Z,2.72
2023-03-27T12:07:35.414Z,10.60
2023-03-27T12:10:28.395Z,2.15
2023-03-27T12:13:38.568Z,4.28
2023-03-27T12:16:36.533Z,4.28
2023-03-27T12:19:10.836Z,3.42
2023-03-27T12:21:55.558Z,2.67
2023-03-27T12:24:58.975Z,6.70
2023-03-27T12:28:08.736Z,4.22
2023-03-27T12:31:31.082Z,3.35
2023-03-27T12:34:06.788Z,2.50
2023-03-27T12:36:38.684Z,4.47
2023-03-27T12:39:20.045Z,3.28
2023-03-27T12:41:47.151Z,2.38
2023-03-27T12:44:32.338Z,3.95
2023-03-27T12:47:18.029Z,2.17
2023-03-27T12:49:57.107Z,4.78
2023-03-27T12:52:28.550Z,4.13
2023-03-27T12:55:30.967Z,3.35
2023-03-27T12:57:58.243Z,5.13
2023-03-27T13:00:52.264Z,4.57
2023-03-27T13:03:41.907Z,2.22
2023-03-27T13:06:22.624Z,2.75
2023-03-27T13:09:11.832Z,5.53
2023-03-27T13:12:26.369Z,2.45
2023-03-27T13:15:11.571Z,3.40
2023-03-27T13:17:56.701Z,4.28
2023-03-27T13:21:05.022Z,6.15
2023-03-27T13:23:43.282Z,3.05
2023-03-27T13:26:39.009Z,3.05
2023-03-27T13:29:23.074Z,4.10
2023-03-27T13:32:03.853Z,4.32
2023-03-27T13:35:11.590Z,5.13
2023-03-27T13:37:48.158Z,2.05
2023-03-27T13:40:30.932Z,2.65
2023-03-27T13:43:28.367Z,5.70
2023-03-27T13:46:01.411Z,2.53
2023-03-27T13:48:54.708Z,4.40
2023-03-27T13:51:42.868Z,4.10
2023-03-27T13:54:34.257Z,3.63
2023-03-27T13:57:42.092Z,1.17
2023-03-27T14:00:21.728Z,3.17
2023-03-27T14:03:13.604Z,3.60
2023-03-27T14:06:20.260Z,0.95
2023-03-27T14:09:16.883Z,1.13
2023-03-27T14:15:28.422Z,1.33
2023-03-27T14:18:40.973Z,1.00
2023-03-27T14:21:11.690Z,1.23
2023-03-27T14:24:40.942Z,1.20
2023-03-27T14:27:19.583Z,1.83
2023-03-27T14:29:49.420Z,2.67
2023-03-27T14:32:18.087Z,0.88
2023-03-27T14:35:04.312Z,1.42
2023-03-27T14:37:36.777Z,1.45
2023-03-27T14:40:23.709Z,1.52
2023-03-27T14:42:55.309Z,2.08
2023-03-27T14:45:27.450Z,3.03
2023-03-27T14:48:02.859Z,1.70
2023-03-27T14:50:38.284Z,3.13
2023-03-27T14:53:08.943Z,1.30
2023-03-27T14:56:00.438Z,4.43
2023-03-27T14:58:52.227Z,2.50
2023-03-27T15:01:20.141Z,1.58
2023-03-27T15:03:53.024Z,3.03
2023-03-27T15:06:25.836Z,2.08
2023-03-27T15:08:59.703Z,2.17
2023-03-27T15:12:02.006Z,1.05
2023-03-27T15:14:32.442Z,1.40
2023-03-27T15:17:06.726Z,2.08
2023-03-27T15:19:45.589Z,0.80
2023-03-27T15:22:35.711Z,2.75
2023-03-27T15:25:10.605Z,0.85
2023-03-27T15:27:40.560Z,0.90
2023-03-27T15:30:20.195Z,1.55
2023-03-27T15:32:50.749Z,2.28
2023-03-27T15:35:29.265Z,1.48
2023-03-27T15:37:57.145Z,2.03
2023-03-27T15:40:40.293Z,2.10
2023-03-27T15:43:08.621Z,2.13
2023-03-27T15:45:53.759Z,0.80
2023-03-27T15:48:21.795Z,1.10
2023-03-27T15:51:00.437Z,1.17
2023-03-27T15:53:42.485Z,0.80
2023-03-27T15:56:22.110Z,0.73
2023-03-27T15:58:52.342Z,0.65
2023-03-27T16:01:22.396Z,3.47
2023-03-27T16:03:51.296Z,0.55
2023-03-27T16:06:38.571Z,0.50
2023-03-27T16:09:17.917Z,0.40
2023-03-27T16:11:46.665Z,2.10
2023-03-27T16:14:22.168Z,2.50
2023-03-27T16:16:49.743Z,0.65
2023-03-27T16:19:16.396Z,0.60
2023-03-27T16:21:56.326Z,1.65
2023-03-27T16:24:22.973Z,0.50
2023-03-27T16:26:50.030Z,0.50
2023-03-27T16:29:17.560Z,0.95
2023-03-27T16:31:44.172Z,5.18
2023-03-27T16:34:21.857Z,1.75
2023-03-27T16:36:49.879Z,1.35
2023-03-27T16:39:16.620Z,1.80
2023-03-27T16:41:43.214Z,3.42
2023-03-27T16:44:09.691Z,2.40
2023-03-27T16:46:36.484Z,1.63
2023-03-27T16:49:03.835Z,1.70
2023-03-27T16:51:30.523Z,1.10
2023-03-27T16:53:57.345Z,3.53
2023-03-27T16:56:23.924Z,1.92
2023-03-27T16:58:50.535Z,1.00
2023-03-27T17:01:17.155Z,2.38
2023-03-27T17:03:43.684Z,2.67
2023-03-27T17:06:12.488Z,1.10
2023-03-27T17:08:39.048Z,3.40
2023-03-27T17:11:08.674Z,0.60
2023-03-27T17:13:36.030Z,0.70
2023-03-27T17:16:03.111Z,0.82
2023-03-27T17:18:29.959Z,1.20
2023-03-27T17:20:56.446Z,1.10
2023-03-27T17:23:23.576Z,1.75
2023-03-27T17:25:50.363Z,1.85
2023-03-27T17:28:17.532Z,2.08
2023-03-27T17:30:56.693Z,0.98
2023-03-27T17:33:30.292Z,2.85
2023-03-27T17:35:57.533Z,0.98
2023-03-27T17:38:24.355Z,1.45
2023-03-27T17:40:51.493Z,3.45
2023-03-27T17:43:18.200Z,1.25
2023-03-27T17:45:44.794Z,1.20
2023-03-27T17:48:11.421Z,4.82
2023-03-27T17:50:38.790Z,0.60
2023-03-27T17:53:05.314Z,1.80
2023-03-27T17:55:31.848Z,2.33
2023-03-27T17:58:08.438Z,1.55
2023-03-27T18:00:37.402Z,1.17
2023-03-27T18:03:04.213Z,1.58
2023-03-27T18:05:30.999Z,5.63
2023-03-27T18:07:57.530Z,1.35
2023-03-27T18:10:24.412Z,1.10
2023-03-27T18:12:50.980Z,1.20
2023-03-27T18:15:17.514Z,1.73
2023-03-27T18:17:44.202Z,0.75
2023-03-27T18:20:10.679Z,3.70
2023-03-27T18:22:38.038Z,2.25
2023-03-27T18:25:06.735Z,1.88
2023-03-27T18:27:33.269Z,0.95
2023-03-27T18:29:59.878Z,0.85
2023-03-27T18:32:26.553Z,0.70
2023-03-27T18:34:53.140Z,5.32
2023-03-27T18:37:19.612Z,1.38
2023-03-27T18:39:46.634Z,0.65
2023-03-27T18:42:13.581Z,6.50
2023-03-27T18:44:41.543Z,1.88
2023-03-27T18:47:08.413Z,0.45
2023-03-27T18:49:34.910Z,0.43
2023-03-27T18:52:01.420Z,1.73
2023-03-27T18:54:28.186Z,2.67
2023-03-27T18:56:54.705Z,1.55
2023-03-27T18:59:22.673Z,2.67
2023-03-27T19:01:49.261Z,1.75
2023-03-27T19:04:17.254Z,0.80
2023-03-27T19:06:43.969Z,0.98
2023-03-27T19:09:10.461Z,2.25
2023-03-27T19:11:38.191Z,1.00
2023-03-27T19:14:23.405Z,4.90
2023-03-27T19:17:14.433Z,0.93
2023-03-27T19:19:59.608Z,4.43
2023-03-27T19:22:41.120Z,3.40
2023-03-27T19:25:33.905Z,1.50
2023-03-27T19:28:01.335Z,6.65
2023-03-27T19:30:28.068Z,0.47
2023-03-27T19:32:55.724Z,2.05
2023-03-27T19:35:22.279Z,2.83
2023-03-27T19:37:49.792Z,0.88
2023-03-27T19:40:20.295Z,1.40
2023-03-27T19:42:46.786Z,0.90
2023-03-27T19:45:13.438Z,0.43
2023-03-27T19:47:39.896Z,1.65
2023-03-27T19:50:08.784Z,1.55
2023-03-27T19:53:09.060Z,1.55
2023-03-27T19:55:35.799Z,1.42
2023-03-27T19:58:02.528Z,0.35
2023-03-27T20:00:31.428Z,3.03
2023-03-27T20:02:58.263Z,1.50
2023-03-27T20:05:24.843Z,1.50
2023-03-27T20:07:53.479Z,1.35
2023-03-27T20:10:21.373Z,3.13
2023-03-27T20:12:48.405Z,1.13
2023-03-27T20:15:14.856Z,0.60
2023-03-27T20:17:42.867Z,4.82
2023-03-27T20:20:12.933Z,0.57
2023-03-27T20:22:54.216Z,6.55
2023-03-27T20:25:23.503Z,0.60
2023-03-27T20:27:49.974Z,3.22
2023-03-27T20:30:17.002Z,8.20
2023-03-27T20:32:43.742Z,1.38
2023-03-27T20:35:22.940Z,3.20
2023-03-27T20:37:56.352Z,0.93
2023-03-27T20:40:25.781Z,0.65
2023-03-27T20:43:03.942Z,1.40
2023-03-27T20:45:31.257Z,1.02
2023-03-27T20:48:03.759Z,1.40
2023-03-27T20:50:35.854Z,0.63
2023-03-27T20:53:04.174Z,3.97
2023-03-27T20:55:34.611Z,0.60
2023-03-27T20:58:02.929Z,1.27
2023-03-27T21:00:29.406Z,3.78
2023-03-27T21:02:56.192Z,1.02
2023-03-27T21:05:22.821Z,1.08
2023-03-27T21:07:51.286Z,2.85
2023-03-27T21:10:19.413Z,1.63
2023-03-27T21:12:45.979Z,2.55
2023-03-27T21:15:13.848Z,3.80
2023-03-27T21:17:40.884Z,4.53
2023-03-27T21:20:08.719Z,7.45
2023-03-27T21:22:37.239Z,1.13
2023-03-27T21:25:03.850Z,0.30
2023-03-27T21:27:30.978Z,1.33
2023-03-27T21:29:58.232Z,1.05
2023-03-27T21:32:24.855Z,4.10
2023-03-27T21:34:51.337Z,1.45
2023-03-27T21:37:17.873Z,0.82
2023-03-27T21:39:44.373Z,1.10
2023-03-27T21:42:10.911Z,1.30
2023-03-27T21:44:37.389Z,1.77
2023-03-27T21:47:03.883Z,1.48
2023-03-27T21:49:30.485Z,0.95
2023-03-27T21:51:57.015Z,4.32
2023-03-27T21:54:23.575Z,1.98
2023-03-27T21:56:50.083Z,0.43
2023-03-27T21:59:16.694Z,0.70
2023-03-27T22:01:43.211Z,4.78
2023-03-27T22:04:11.425Z,1.95
2023-03-27T22:06:38.216Z,0.57
2023-03-27T22:09:04.686Z,0.73
2023-03-27T22:11:31.278Z,5.00
2023-03-27T22:13:59.138Z,2.42
2023-03-27T22:16:25.850Z,0.80
2023-03-27T22:18:52.470Z,2.45
2023-03-27T22:21:27.011Z,0.47
2023-03-27T22:23:55.293Z,2.80
2023-03-27T22:26:24.193Z,4.68
2023-03-27T22:28:52.469Z,1.00
2023-03-27T22:31:19.920Z,0.50
2023-03-27T22:33:46.513Z,3.15
2023-03-27T22:36:13.452Z,0.98
2023-03-27T22:38:40.751Z,1.50
2023-03-27T22:41:09.088Z,1.23
2023-03-27T22:43:36.113Z,3.83
2023-03-27T22:46:07.013Z,0.38
2023-03-27T22:48:34.567Z,0.85
2023-03-27T22:51:01.287Z,4.88
2023-03-27T22:53:28.296Z,3.70
2023-03-27T22:55:56.738Z,3.20
2023-03-27T22:58:24.112Z,6.43
2023-03-27T23:00:51.747Z,0.55
2023-03-27T23:03:18.688Z,0.50
2023-03-27T23:05:48.892Z,0.63
2023-03-27T23:08:16.589Z,1.55
2023-03-27T23:10:43.067Z,0.90
2023-03-27T23:13:10.005Z,0.60
2023-03-27T23:15:36.764Z,0.85
2023-03-27T23:18:03.928Z,1.50
2023-03-27T23:20:31.216Z,1.08
2023-03-27T23:22:57.726Z,0.77
2023-03-27T23:25:24.259Z,0.50
2023-03-27T23:27:50.750Z,4.40
2023-03-27T23:30:17.286Z,2.20
2023-03-27T23:32:43.834Z,1.35
2023-03-27T23:35:11.354Z,2.28
2023-03-27T23:37:38.052Z,1.88
2023-03-27T23:40:04.961Z,2.40
2023-03-27T23:42:31.674Z,2.58
2023-03-27T23:44:58.125Z,0.88
2023-03-27T23:47:24.668Z,1.10
2023-03-27T23:49:51.184Z,2.33
2023-03-27T23:52:17.989Z,2.75
2023-03-27T23:54:44.502Z,2.13
2023-03-27T23:57:10.999Z,2.38
2023-03-27T23:59:37.912Z,2.58
